Time;durP1;ratioP1;P1;durP2;ratioP2;P2;SDS_P1;SDS_P2;PMS_P1;PMS_P2;Temp;Humidity;BMP_temperature;BMP_pressure;BME280_temperature;BME280_humidity;BME280_pressure;Samples;Min_cycle;Max_cycle;Signal;HPM_P1;HPM_P2
2023/01/17 00:09:52;;;;;;;24.00;14.60;;;;;;;2.37;100.00;97858.31;4776055;59;1138786;-70
2023/01/17 00:15:00;;;;;;;29.70;15.10;;;;;;;2.42;100.00;97856.13;4775647;59;1138897;-73
2023/01/17 01:34:47;;;;;;;27.40;15.90;;;;;;;2.79;100.00;97757.63;4915940;57;1138955;-81
2023/01/17 01:39:53;;;;;;;18.57;13.13;;;;;;;2.78;100.00;97750.28;5003727;57;1138975;-74
2023/01/17 01:44:59;;;;;;;21.30;14.20;;;;;;;2.78;100.00;97745.55;5004281;57;1138923;-73
2023/01/17 01:50:09;;;;;;;24.87;14.77;;;;;;;2.85;100.00;97722.34;5023734;57;1138820;-72
2023/01/17 01:55:18;;;;;;;21.97;13.50;;;;;;;2.85;100.00;97700.98;5004012;56;1141052;-75
2023/01/17 02:00:33;;;;;;;24.87;13.93;;;;;;;2.87;100.00;97695.14;5003751;57;1141033;-75
2023/01/17 02:05:42;;;;;;;24.32;15.78;;;;;;;2.87;100.00;97709.50;4993552;57;1138763;-77
2023/01/17 02:10:48;;;;;;;25.83;15.70;;;;;;;2.86;100.00;97703.94;5003858;57;1138819;-74
2023/01/17 02:15:58;;;;;;;27.03;15.93;;;;;;;2.87;100.00;97695.62;4960930;57;1138889;-72
2023/01/17 02:21:25;;;;;;;25.68;15.88;;;;;;;2.87;100.00;97693.84;4920024;58;1141035;-75
2023/01/17 02:26:59;;;;;;;26.33;17.27;;;;;;;2.92;100.00;97702.53;4942439;58;1138789;-81
2023/01/17 02:32:18;;;;;;;30.23;16.97;;;;;;;2.93;100.00;97697.66;4924722;58;1138844;-81
2023/01/17 02:37:29;;;;;;;30.60;16.23;;;;;;;2.94;100.00;97682.34;4941475;58;1138857;-72
2023/01/17 02:42:42;;;;;;;26.20;15.58;;;;;;;2.90;100.00;97669.24;4797738;59;1138770;-72
2023/01/17 02:47:48;;;;;;;24.67;15.23;;;;;;;2.95;100.00;97670.45;4754567;60;1138940;-71
2023/01/17 02:53:25;;;;;;;29.40;16.83;;;;;;;2.99;100.00;97677.05;4756784;60;1138728;-78
2023/01/17 02:59:07;;;;;;;31.93;17.27;;;;;;;3.00;100.00;97678.69;4923428;58;1138843;-79
2023/01/17 03:04:35;;;;;;;28.60;16.57;;;;;;;3.02;100.00;97666.33;4923325;58;1138806;-75
2023/01/17 03:09:42;;;;;;;35.37;18.53;;;;;;;3.05;100.00;97649.56;4942421;58;1138823;-78
2023/01/17 03:14:48;;;;;;;32.40;17.80;;;;;;;3.03;100.00;97634.03;4929258;58;1138912;-79
2023/01/17 03:19:54;;;;;;;26.20;16.70;;;;;;;3.05;100.00;97633.89;4934354;58;1138996;-75
2023/01/17 03:25:00;;;;;;;28.50;17.07;;;;;;;3.08;100.00;97635.72;4922442;58;1138884;-76
2023/01/17 03:30:07;;;;;;;31.13;16.87;;;;;;;3.11;100.00;97640.66;4942495;58;1138837;-72
2023/01/17 03:35:14;;;;;;;33.87;16.47;;;;;;;3.17;100.00;97650.55;4926129;58;1138794;-73
2023/01/17 03:40:19;;;;;;;27.73;17.27;;;;;;;3.22;100.00;97645.34;4926777;58;1138693;-81
2023/01/17 03:45:26;;;;;;;35.73;18.57;;;;;;;3.28;100.00;97637.78;4959140;57;1138787;-77
2023/01/17 03:50:32;;;;;;;26.37;16.90;;;;;;;3.32;100.00;97640.94;4999160;57;1139169;-80
2023/01/17 03:55:38;;;;;;;25.93;17.00;;;;;;;3.35;100.00;97623.67;5004008;57;1138830;-73
2023/01/17 04:00:44;;;;;;;27.70;17.55;;;;;;;3.39;100.00;97624.52;5024488;56;1140831;-75
2023/01/17 04:05:50;;;;;;;27.23;15.57;;;;;;;3.42;100.00;97618.19;5003796;57;1138790;-76
2023/01/17 04:10:56;;;;;;;28.43;16.47;;;;;;;3.39;100.00;97607.55;5004655;56;1138660;-80
2023/01/17 04:16:02;;;;;;;26.27;16.52;;;;;;;3.40;100.00;97602.66;4956283;57;1138871;-74
2023/01/17 04:21:08;;;;;;;32.27;17.33;;;;;;;3.43;100.00;97616.74;4897673;58;1138813;-76
2023/01/17 04:26:14;;;;;;;26.93;15.33;;;;;;;3.44;100.00;97616.27;4852067;58;1138989;-75
2023/01/17 04:31:19;;;;;;;30.83;16.37;;;;;;;3.44;100.00;97607.12;4877679;57;1139054;-80
2023/01/17 04:36:25;;;;;;;27.77;15.23;;;;;;;3.43;100.00;97606.30;4942834;58;1138664;-77
2023/01/17 04:41:32;;;;;;;27.00;12.70;;;;;;;3.45;100.00;97604.36;4894270;58;1138850;-74
2023/01/17 04:46:38;;;;;;;30.50;16.20;;;;;;;3.43;100.00;97600.24;4988050;57;1138952;-72
2023/01/17 04:51:43;;;;;;;24.10;14.20;;;;;;;3.45;100.00;97597.00;5023775;57;1138928;-73
2023/01/17 04:56:50;;;;;;;24.45;13.25;;;;;;;3.45;100.00;97601.75;5004137;57;1138789;-82
2023/01/17 05:01:55;;;;;;;26.57;14.60;;;;;;;3.43;100.00;97600.24;4982691;57;1138779;-74
2023/01/17 05:07:01;;;;;;;29.53;14.20;;;;;;;3.39;100.00;97592.35;4928734;57;1138804;-73
2023/01/17 05:12:07;;;;;;;23.90;13.33;;;;;;;3.38;100.00;97592.02;4953976;58;1138613;-76
2023/01/17 05:17:13;;;;;;;26.27;14.77;;;;;;;3.38;100.00;97608.51;4926275;58;1138810;-77
2023/01/17 05:22:19;;;;;;;32.83;16.27;;;;;;;3.34;100.00;97603.74;4940923;57;1138753;-74
2023/01/17 05:27:25;;;;;;;29.37;15.23;;;;;;;3.31;100.00;97621.00;4938004;58;1138753;-78
2023/01/17 05:32:31;;;;;;;28.57;14.23;;;;;;;3.32;100.00;97614.81;4924083;58;1138934;-69
2023/01/17 05:37:37;;;;;;;53.52;27.00;;;;;;;3.32;100.00;97614.33;4935530;56;1138860;-74
2023/01/17 05:42:48;;;;;;;28.57;15.20;;;;;;;3.31;100.00;97618.39;4967205;56;1138738;-72
2023/01/17 05:47:56;;;;;;;21.70;13.77;;;;;;;3.29;100.00;97612.00;5047362;56;1138971;-75
2023/01/17 05:53:11;;;;;;;26.97;15.33;;;;;;;3.28;100.00;97603.83;5046919;57;1138795;-77
2023/01/17 05:58:20;;;;;;;23.20;11.10;;;;;;;3.29;100.00;97608.09;5047914;56;1138948;-69
2023/01/17 06:03:26;;;;;;;28.17;14.27;;;;;;;3.30;100.00;97611.52;5067287;57;1138885;-81
2023/01/17 06:08:31;;;;;;;24.50;13.20;;;;;;;3.27;100.00;97621.77;5047871;57;1138959;-74
2023/01/17 06:13:38;;;;;;;25.50;12.07;;;;;;;3.24;100.00;97623.35;5028287;56;1138810;-71
2023/01/17 06:18:43;;;;;;;48.92;15.13;;;;;;;3.26;100.00;97618.81;5006890;57;1138726;-75
2023/01/17 06:23:49;;;;;;;22.37;11.40;;;;;;;3.24;100.00;97631.19;4964705;58;1138689;-75
2023/01/17 06:28:56;;;;;;;23.83;12.43;;;;;;;3.19;100.00;97625.59;4964674;58;1138766;-77
2023/01/17 06:34:05;;;;;;;21.40;10.82;;;;;;;3.25;100.00;97638.06;4964929;58;1138995;-75
2023/01/17 06:39:11;;;;;;;21.10;9.83;;;;;;;3.26;100.00;97632.36;4984879;58;1138792;-74
2023/01/17 06:44:17;;;;;;;18.47;9.93;;;;;;;3.26;100.00;97654.07;4874727;58;1136765;-71
2023/01/17 06:49:23;;;;;;;19.17;9.57;;;;;;;3.26;100.00;97651.46;4891345;58;1136727;-76
2023/01/17 06:54:30;;;;;;;18.40;9.40;;;;;;;3.25;100.00;97657.64;4865079;58;1136749;-69
2023/01/17 06:59:36;;;;;;;16.83;9.77;;;;;;;3.25;100.00;97664.66;4983934;57;1146314;-73
2023/01/17 07:04:41;;;;;;;15.33;9.07;;;;;;;3.28;100.00;97663.07;4900538;59;1136681;-72
2023/01/17 07:09:47;;;;;;;17.87;10.13;;;;;;;3.30;100.00;97665.89;4919710;59;1136745;-71
2023/01/17 07:14:53;;;;;;;19.40;10.57;;;;;;;3.32;100.00;97669.66;4892888;58;1139014;-74
2023/01/17 07:19:59;;;;;;;15.27;7.83;;;;;;;3.35;100.00;97672.82;4905775;58;1138856;-80
2023/01/17 07:25:05;;;;;;;18.73;9.48;;;;;;;3.38;100.00;97672.98;4883850;58;1136906;-75
2023/01/17 07:30:12;;;;;;;16.20;7.80;;;;;;;3.38;100.00;97672.51;4903274;58;1136757;-78
2023/01/17 07:35:17;;;;;;;16.07;8.10;;;;;;;3.37;100.00;97670.86;4827378;58;1136863;-79
2023/01/17 07:40:24;;;;;;;13.57;6.70;;;;;;;3.37;100.00;97673.95;4823796;58;1136747;-77
2023/01/17 07:45:31;;;;;;;11.70;6.10;;;;;;;3.36;100.00;97678.87;4795458;60;1137065;-74
2023/01/17 07:50:37;;;;;;;10.25;5.22;;;;;;;3.40;100.00;97681.03;4775464;58;1136699;-76
2023/01/17 07:55:43;;;;;;;10.08;5.75;;;;;;;3.46;100.00;97677.86;4775466;57;1137001;-69
2023/01/17 08:00:49;;;;;;;20.27;8.67;;;;;;;3.47;100.00;97689.13;4794225;58;1136841;-71
2023/01/17 08:05:56;;;;;;;12.67;6.43;;;;;;;3.53;100.00;97693.77;4910124;57;1136778;-72
2023/01/17 08:11:02;;;;;;;9.53;5.43;;;;;;;3.53;100.00;97684.62;4924187;57;1136645;-67
2023/01/17 08:16:10;;;;;;;6.87;4.25;;;;;;;3.53;100.00;97695.89;4917783;57;1134843;-68
2023/01/17 08:21:17;;;;;;;9.47;5.93;;;;;;;3.58;100.00;97693.34;4933655;57;1134694;-82
2023/01/17 08:26:24;;;;;;;7.33;5.10;;;;;;;3.60;100.00;97693.54;4914171;57;1134574;-71
2023/01/17 08:31:33;;;;;;;8.27;5.50;;;;;;;3.64;100.00;97701.44;4910804;58;1134683;-72
2023/01/17 08:36:39;;;;;;;11.05;6.28;;;;;;;3.69;100.00;97703.11;4790788;60;1134608;-68
2023/01/17 08:41:45;;;;;;;7.15;4.30;;;;;;;3.73;100.00;97712.80;4773667;59;1136837;-76
2023/01/17 08:46:51;;;;;;;5.87;3.93;;;;;;;3.73;100.00;97718.85;4815493;59;1134677;-72
2023/01/17 08:51:57;;;;;;;7.03;4.20;;;;;;;3.73;100.00;97718.85;4867655;59;1134812;-74
2023/01/17 08:57:03;;;;;;;6.43;3.67;;;;;;;3.83;100.00;97736.61;4889513;59;1134654;-66
2023/01/17 09:02:16;;;;;;;7.92;4.17;;;;;;;3.83;100.00;97736.61;4834836;59;1134900;-80
2023/01/17 09:07:23;;;;;;;6.50;3.50;;;;;;;3.84;100.00;97742.19;4833010;59;1134488;-72
2023/01/17 09:12:33;;;;;;;8.93;3.37;;;;;;;3.88;100.00;97746.65;4788562;58;1134602;-66
2023/01/17 09:17:39;;;;;;;8.27;4.20;;;;;;;3.94;100.00;97757.02;4785405;59;1134600;-67
2023/01/17 09:22:45;;;;;;;5.95;3.58;;;;;;;3.95;100.00;97768.64;4804594;59;1134775;-70
2023/01/17 09:27:51;;;;;;;8.63;3.93;;;;;;;4.00;100.00;97771.62;4797363;58;1134923;-71
2023/01/17 09:32:58;;;;;;;6.67;3.70;;;;;;;4.00;100.00;97778.17;4821867;59;1134746;-68
2023/01/17 09:38:04;;;;;;;6.90;3.50;;;;;;;4.02;100.00;97777.55;4772574;60;1134872;-66
2023/01/17 09:43:22;;;;;;;5.87;3.57;;;;;;;4.06;100.00;97784.63;4949872;57;1134700;-69
2023/01/17 09:48:39;;;;;;;19.52;14.10;;;;;;;4.10;100.00;97789.91;4958471;57;1134615;-67
2023/01/17 09:53:45;;;;;;;2.53;2.00;;;;;;;4.14;100.00;97776.37;4854397;57;1138928;-72
2023/01/17 09:59:23;;;;;;;18.23;9.85;;;;;;;4.25;100.00;97774.06;4873931;57;1134625;-70
2023/01/17 10:04:50;;;;;;;6.50;4.10;;;;;;;4.32;100.00;97780.83;4850726;59;1136878;-66
2023/01/17 10:10:31;;;;;;;41.07;13.03;;;;;;;4.45;100.00;97779.50;4868553;58;1134780;-68
2023/01/17 10:16:03;;;;;;;20.37;7.87;;;;;;;4.54;100.00;97786.97;4920027;58;1138980;-68
2023/01/17 10:21:29;;;;;;;16.93;7.53;;;;;;;4.59;100.00;97784.22;4906999;58;1136631;-72
2023/01/17 10:26:36;;;;;;;22.27;10.47;;;;;;;4.71;100.00;97786.64;4764325;60;1136784;-67
2023/01/17 10:31:54;;;;;;;231.38;108.22;;;;;;;4.82;100.00;97779.88;4768767;59;1138867;-73
2023/01/17 10:37:35;;;;;;;11.40;5.77;;;;;;;5.00;100.00;97783.80;4840920;59;1143176;-71
2023/01/17 10:42:51;;;;;;;141.12;67.30;;;;;;;5.06;100.00;97792.34;4809084;59;1136743;-72
2023/01/17 10:48:01;;;;;;;47.98;11.12;;;;;;;5.13;100.00;97792.09;4825411;59;1141061;-71
2023/01/17 10:53:20;;;;;;;5.20;2.17;;;;;;;5.16;100.00;97809.64;4837674;58;1138760;-71
2023/01/17 10:58:26;;;;;;;8.33;2.67;;;;;;;5.17;100.00;97808.67;4839334;59;1134591;-72
2023/01/17 11:03:33;;;;;;;33.37;9.80;;;;;;;5.18;100.00;97804.26;4900162;57;1134675;-67
2023/01/17 11:09:00;;;;;;;3.35;2.10;;;;;;;5.18;100.00;97807.70;4923979;57;1136665;-67
2023/01/17 11:14:22;;;;;;;5.80;2.53;;;;;;;5.20;100.00;97804.90;4941011;57;1134662;-72
2023/01/17 11:19:34;;;;;;;7.13;3.07;;;;;;;5.20;100.00;97803.11;4953639;57;1134709;-68
2023/01/17 11:24:44;;;;;;;7.97;3.83;;;;;;;5.24;100.00;97807.56;4954646;57;1134654;-70
2023/01/17 11:29:55;;;;;;;5.03;1.98;;;;;;;5.26;100.00;97809.55;4931024;57;1134704;-68
2023/01/17 11:35:24;;;;;;;10.83;3.90;;;;;;;5.35;100.00;97811.25;4922600;58;1134753;-74
2023/01/17 11:40:44;;;;;;;4.83;2.30;;;;;;;5.44;100.00;97816.08;4929691;56;1136667;-72
2023/01/17 11:46:28;;;;;;;2.83;1.60;;;;;;;5.39;100.00;97811.28;4998479;57;1134621;-73
2023/01/17 11:51:37;;;;;;;19.80;4.43;;;;;;;5.33;100.00;97821.57;4966983;57;1134449;-72
2023/01/17 11:56:45;;;;;;;4.37;2.22;;;;;;;5.27;100.00;97829.54;4973041;57;1136745;-71
2023/01/17 12:02:00;;;;;;;19.20;6.15;;;;;;;5.24;100.00;97820.17;4991539;57;1134655;-73
2023/01/17 12:07:33;;;;;;;42.33;19.23;;;;;;;5.24;100.00;97822.80;4982046;57;1136712;-72
2023/01/17 12:18:42;;;;;;;67.00;19.93;;;;;;;5.26;100.00;97827.89;4974974;57;1134713;-71
2023/01/17 12:24:16;;;;;;;5.10;2.67;;;;;;;5.26;100.00;97830.52;5002343;57;1138651;-71
2023/01/17 12:29:57;;;;;;;50.20;27.33;;;;;;;5.27;100.00;97834.30;4979786;57;1134507;-69
2023/01/17 12:35:26;;;;;;;26.15;13.40;;;;;;;5.26;100.00;97839.20;4826356;59;1138757;-70
2023/01/17 12:40:48;;;;;;;7.33;4.80;;;;;;;5.31;100.00;97840.06;4880689;58;1138627;-70
2023/01/17 12:45:55;;;;;;;20.77;8.10;;;;;;;5.34;100.00;97839.77;4849636;59;1134633;-72
2023/01/17 12:51:08;;;;;;;7.10;3.97;;;;;;;5.32;100.00;97841.71;4886389;58;1136798;-69
2023/01/17 12:56:23;;;;;;;;;;;;;;;5.37;100.00;97842.55;4975219;57;1134655;-72
2023/01/17 13:01:42;;;;;;;4.35;2.35;;;;;;;5.60;100.00;97841.92;5060121;57;971982;-70
2023/01/17 13:07:03;;;;;;;2.58;1.95;;;;;;;6.45;100.00;97842.07;4966446;57;1132613;-72
2023/01/17 13:12:13;;;;;;;3.77;2.07;;;;;;;6.63;100.00;97843.63;4980160;57;1134572;-71
2023/01/17 13:17:35;;;;;;;7.53;3.40;;;;;;;6.64;100.00;97861.52;4965736;57;1134570;-74
2023/01/17 13:22:42;;;;;;;6.73;3.33;;;;;;;6.33;100.00;97855.48;4985699;57;1134676;-71
2023/01/17 13:28:16;;;;;;;6.80;3.05;;;;;;;6.14;100.00;97862.77;4986020;57;1134588;-73
2023/01/17 13:33:38;;;;;;;6.20;2.30;;;;;;;6.24;100.00;97869.56;5004337;57;1134592;-76
2023/01/17 13:39:31;;;;;;;5.97;2.90;;;;;;;6.04;100.00;97886.98;5048904;57;1134783;-79
2023/01/17 13:44:38;;;;;;;10.18;3.52;;;;;;;5.83;100.00;97895.16;5063684;57;1134881;-73
2023/01/17 13:49:55;;;;;;;7.55;2.40;;;;;;;5.65;100.00;97903.88;5053634;57;1136755;-72
2023/01/17 13:55:03;;;;;;;8.20;3.73;;;;;;;5.77;100.00;97907.11;5047847;57;1134458;-75
2023/01/17 14:00:28;;;;;;;9.40;3.80;;;;;;;5.71;100.00;97914.27;5004689;57;1134553;-75
2023/01/17 14:05:48;;;;;;;6.93;2.67;;;;;;;5.62;100.00;97920.43;5023168;57;1134679;-81
2023/01/17 14:10:58;;;;;;;3.52;2.00;;;;;;;5.54;100.00;97934.28;5004176;57;1134788;-81
2023/01/17 14:16:23;;;;;;;3.45;2.30;;;;;;;5.52;100.00;97938.02;4928405;57;1134866;-84
2023/01/17 14:21:32;;;;;;;5.67;3.37;;;;;;;5.43;100.00;97954.17;5000740;57;1134735;-80
2023/01/17 14:26:57;;;;;;;8.68;3.52;;;;;;;5.37;100.00;97965.23;5014583;57;1134682;-71
2023/01/17 14:32:08;;;;;;;4.03;2.80;;;;;;;5.33;100.00;97978.81;4984240;57;1134717;-73
2023/01/17 14:37:33;;;;;;;5.47;2.50;;;;;;;5.26;100.00;97989.05;4933851;57;1134659;-73
2023/01/17 14:42:40;;;;;;;5.50;2.47;;;;;;;5.28;100.00;97994.97;4946590;57;1134693;-75
2023/01/17 14:47:46;;;;;;;8.93;3.47;;;;;;;5.29;100.00;98009.23;4924180;58;1134577;-77
2023/01/17 14:53:16;;;;;;;6.50;2.20;;;;;;;5.19;100.00;97999.80;4923987;58;1134802;-75
2023/01/17 14:58:33;;;;;;;3.73;1.97;;;;;;;5.17;100.00;98020.89;4923393;58;1134676;-78
2023/01/17 15:03:48;;;;;;;7.00;3.50;;;;;;;5.05;100.00;98018.11;4942162;58;1134753;-70
2023/01/17 15:08:54;;;;;;;5.17;2.63;;;;;;;4.87;100.00;98029.03;4967938;57;1134666;-74
2023/01/17 15:14:04;;;;;;;20.53;6.00;;;;;;;4.87;100.00;98029.03;4978095;57;1134634;-82
2023/01/17 15:19:14;;;;;;;8.08;4.08;;;;;;;4.85;100.00;98047.51;4941881;57;1136881;-74
2023/01/17 15:24:23;;;;;;;12.53;4.87;;;;;;;4.77;100.00;98064.40;4995193;57;1134641;-82
2023/01/17 15:29:32;;;;;;;15.27;8.30;;;;;;;4.72;100.00;98078.91;4923604;57;1136759;-73
2023/01/17 15:34:46;;;;;;;9.87;4.23;;;;;;;4.65;100.00;98085.66;4973183;57;1177203;-76
2023/01/17 15:39:55;;;;;;;9.03;3.33;;;;;;;4.55;100.00;98083.90;5005782;57;1134712;-72
2023/01/17 15:45:05;;;;;;;25.48;11.18;;;;;;;4.49;100.00;98087.06;4931526;58;1134659;-82
2023/01/17 15:50:29;;;;;;;12.70;5.87;;;;;;;4.42;100.00;98099.08;4952302;57;1139001;-71
2023/01/17 15:55:38;;;;;;;82.30;47.50;;;;;;;4.36;100.00;98106.64;4967630;57;1136675;-78
2023/01/17 16:00:45;;;;;;;34.67;20.77;;;;;;;4.30;100.00;98125.50;4829311;59;1147019;-80
2023/01/17 16:05:53;;;;;;;16.48;9.20;;;;;;;4.27;100.00;98125.32;4871986;58;1138915;-71
2023/01/17 16:11:05;;;;;;;12.53;7.62;;;;;;;4.24;100.00;98137.36;4824415;60;1136904;-71
2023/01/17 16:16:18;;;;;;;31.93;16.80;;;;;;;4.18;100.00;98141.83;4768958;60;1136707;-74
2023/01/17 16:21:28;;;;;;;13.20;7.97;;;;;;;4.12;100.00;98154.98;4760777;60;1138709;-67
2023/01/17 16:26:34;;;;;;;16.30;7.77;;;;;;;4.06;100.00;98170.38;4740508;59;1136706;-81
2023/01/17 16:31:40;;;;;;;8.43;5.75;;;;;;;4.04;100.00;98178.84;4669509;60;1136830;-75
2023/01/17 16:36:46;;;;;;;16.73;6.60;;;;;;;4.04;100.00;98182.28;4901139;57;1134644;-67
2023/01/17 16:42:05;;;;;;;16.23;5.83;;;;;;;4.01;100.00;98187.78;4897114;57;1136873;-77
2023/01/17 16:47:06;;;;;;;;;;;;;;;4.00;100.00;98186.13;4945098;57;1136796;-80
2023/01/17 16:52:12;;;;;;;13.80;6.47;;;;;;;3.98;100.00;98184.59;4918284;57;971923;-78
2023/01/17 16:57:18;;;;;;;11.57;6.77;;;;;;;3.92;100.00;98185.98;4886940;58;1134620;-74
2023/01/17 17:02:27;;;;;;;22.73;7.87;;;;;;;3.91;100.00;98192.17;4898476;58;1136833;-66
2023/01/17 17:07:35;;;;;;;48.37;21.40;;;;;;;3.91;100.00;98193.48;4962007;57;1136760;-74
2023/01/17 17:12:42;;;;;;;85.50;32.10;;;;;;;3.87;100.00;98190.78;4936159;57;1138783;-67
2023/01/17 17:17:48;;;;;;;308.93;103.38;;;;;;;3.84;100.00;98186.64;4959736;57;1138818;-75
2023/01/17 17:22:54;;;;;;;298.13;114.07;;;;;;;3.86;100.00;98185.20;4968546;57;1142973;-76
2023/01/17 17:27:59;;;;;;;87.90;39.30;;;;;;;3.95;100.00;98185.72;4943348;57;1142917;-78
2023/01/17 17:33:05;;;;;;;41.93;20.00;;;;;;;3.95;100.00;98188.34;4934437;57;1138894;-69
2023/01/17 17:38:10;;;;;;;27.13;11.78;;;;;;;3.91;100.00;98184.33;4930711;57;1138908;-77
2023/01/17 17:43:16;;;;;;;60.53;27.57;;;;;;;3.80;100.00;98185.75;4952588;57;1138783;-78
2023/01/17 17:48:22;;;;;;;46.07;18.07;;;;;;;3.70;100.00;98184.88;4994387;57;1138917;-72
2023/01/17 17:53:29;;;;;;;31.05;13.43;;;;;;;3.62;100.00;98201.72;4986369;57;1138861;-73
2023/01/17 17:58:35;;;;;;;22.73;11.07;;;;;;;3.48;100.00;98214.19;4942396;58;1138606;-76
2023/01/17 18:03:42;;;;;;;135.43;69.58;;;;;;;3.35;100.00;98216.66;4909309;57;1138814;-72
2023/01/17 18:08:50;;;;;;;53.40;19.52;;;;;;;3.25;100.00;98217.91;4839470;59;1140983;-67
2023/01/17 18:14:00;;;;;;;59.33;29.05;;;;;;;3.24;100.00;98233.22;4912255;57;1138985;-78
2023/01/17 18:19:06;;;;;;;46.67;22.57;;;;;;;3.15;100.00;98243.98;4896779;58;1138787;-83
2023/01/17 18:24:15;;;;;;;59.75;23.65;;;;;;;3.07;100.00;98243.77;4899886;58;1138774;-81
2023/01/17 18:29:23;;;;;;;39.93;13.00;;;;;;;2.96;100.00;98240.41;4922292;57;1138951;-77
2023/01/17 18:34:29;;;;;;;93.70;44.17;;;;;;;2.91;100.00;98237.33;4911891;57;1139224;-75
2023/01/17 18:39:35;;;;;;;62.85;22.05;;;;;;;2.85;100.00;98239.99;4911195;57;1138866;-80
2023/01/17 18:44:41;;;;;;;64.57;24.67;;;;;;;2.87;100.00;98243.78;4959923;57;1138986;-78
2023/01/17 18:49:52;;;;;;;47.08;19.40;;;;;;;2.83;100.00;98253.17;4931502;57;1138979;-78
2023/01/17 18:54:54;;;;;;;76.12;28.47;;;;;;;2.85;100.00;98260.05;4918441;57;1138843;-81
2023/01/17 19:00:01;;;;;;;368.75;105.90;;;;;;;2.88;100.00;98276.77;4858820;58;1139096;-75
2023/01/17 19:05:08;;;;;;;65.87;26.70;;;;;;;2.82;100.00;98291.97;4917948;57;1142881;-72
2023/01/17 19:10:14;;;;;;;251.55;69.37;;;;;;;2.67;100.00;98306.73;4927310;58;1138858;-80
2023/01/17 19:15:20;;;;;;;201.63;102.23;;;;;;;2.59;100.00;98319.59;4926879;58;1140932;-81
2023/01/17 19:20:26;;;;;;;446.63;134.13;;;;;;;2.60;100.00;98324.66;4944231;58;1143115;-84
2023/01/17 19:25:36;;;;;;;75.00;29.67;;;;;;;2.59;100.00;98328.72;4968555;57;1142954;-80
2023/01/17 19:30:43;;;;;;;90.62;30.20;;;;;;;2.56;100.00;98320.66;4969475;57;1138818;-77
2023/01/17 19:35:49;;;;;;;58.08;22.60;;;;;;;2.56;100.00;98318.52;5002809;57;1138672;-73
2023/01/17 19:40:55;;;;;;;126.00;37.50;;;;;;;2.50;100.00;98328.95;5003984;57;1138680;-78
2023/01/17 19:46:02;;;;;;;134.20;43.38;;;;;;;2.35;100.00;98340.61;4902171;57;1140886;-80
2023/01/17 19:51:13;;;;;;;163.73;60.57;;;;;;;2.25;100.00;98333.16;4851764;59;1141063;-79
2023/01/17 19:56:23;;;;;;;196.20;63.60;;;;;;;2.13;100.00;98334.95;4910564;57;1140963;-74
2023/01/17 20:01:32;;;;;;;161.17;49.47;;;;;;;1.98;100.00;98333.54;4946395;57;1140847;-75
2023/01/17 20:06:38;;;;;;;177.73;47.77;;;;;;;1.83;100.00;98320.39;4953546;57;1140747;-79
2023/01/17 20:11:45;;;;;;;135.97;41.45;;;;;;;1.73;100.00;98324.16;4954890;57;1140822;-71
2023/01/17 20:16:52;;;;;;;191.47;61.93;;;;;;;1.66;100.00;98326.41;4934272;57;1140868;-72
2023/01/17 20:21:58;;;;;;;411.82;129.25;;;;;;;1.59;100.00;98336.93;4930539;58;1140813;-83
2023/01/17 20:27:03;;;;;;;405.27;128.70;;;;;;;1.49;100.00;98330.77;4929870;58;1143019;-77
2023/01/17 20:32:09;;;;;;;394.07;119.20;;;;;;;1.39;100.00;98348.01;4932275;58;1142864;-73
2023/01/17 20:37:15;;;;;;;414.17;146.10;;;;;;;1.26;100.00;98354.61;4922345;58;1143010;-73
2023/01/17 20:42:21;;;;;;;206.83;71.77;;;;;;;1.14;100.00;98358.12;4898951;57;1142853;-83
2023/01/17 20:47:28;;;;;;;162.50;56.83;;;;;;;1.08;100.00;98360.33;4950290;58;1140849;-77
2023/01/17 20:52:34;;;;;;;167.60;48.67;;;;;;;1.00;100.00;98367.41;4901335;58;1140765;-70
2023/01/17 20:57:40;;;;;;;85.10;26.77;;;;;;;0.92;100.00;98371.86;4856627;58;1140844;-79
2023/01/17 21:02:46;;;;;;;122.47;34.18;;;;;;;0.89;100.00;98363.47;4856466;58;1138862;-72
2023/01/17 21:07:52;;;;;;;215.82;58.78;;;;;;;0.85;100.00;98373.73;4889387;58;1141080;-76
2023/01/17 21:12:58;;;;;;;120.00;42.57;;;;;;;0.80;100.00;98370.15;4927776;58;1141238;-70
2023/01/17 21:18:04;;;;;;;76.63;30.47;;;;;;;0.75;100.00;98388.35;4927448;58;1141086;-70
2023/01/17 21:23:16;;;;;;;72.80;25.50;;;;;;;0.70;100.00;98401.21;4943093;58;1138863;-74
2023/01/17 21:28:18;;;;;;;87.23;30.07;;;;;;;0.68;100.00;98403.09;4923100;58;1138842;-79
2023/01/17 21:33:25;;;;;;;85.47;30.43;;;;;;;0.73;100.00;98400.17;4931183;58;1138714;-73
2023/01/17 21:38:32;;;;;;;108.77;42.10;;;;;;;0.73;100.00;98400.17;4949537;57;1138877;-80
2023/01/17 21:43:38;;;;;;;182.07;71.13;;;;;;;0.72;100.00;98397.67;4939014;57;1140858;-77
2023/01/17 21:48:44;;;;;;;154.27;55.47;;;;;;;0.72;100.00;98398.50;4971271;57;1140995;-70
2023/01/17 21:53:50;;;;;;;114.47;44.47;;;;;;;0.65;100.00;98418.91;4942614;58;1140833;-77
2023/01/17 21:58:57;;;;;;;74.43;29.90;;;;;;;0.64;100.00;98432.84;4923287;58;1140822;-71
2023/01/17 22:04:04;;;;;;;65.37;25.43;;;;;;;0.65;100.00;98447.52;4923693;58;1138641;-77
2023/01/17 22:09:10;;;;;;;41.88;18.07;;;;;;;0.59;100.00;98454.94;4951931;57;1138940;-75
2023/01/17 22:14:18;;;;;;;43.47;18.73;;;;;;;0.51;100.00;98459.36;5023362;57;1138810;-75
2023/01/17 22:19:23;;;;;;;61.60;24.57;;;;;;;0.60;100.00;98462.64;4981547;57;1138920;-76
2023/01/17 22:24:29;;;;;;;54.67;22.00;;;;;;;0.66;100.00;98473.06;4922224;58;1138848;-79
2023/01/17 22:29:36;;;;;;;47.70;21.77;;;;;;;0.73;100.00;98473.48;4942498;58;1138927;-68
2023/01/17 22:34:42;;;;;;;56.83;22.23;;;;;;;0.79;100.00;98461.32;4937081;57;1138680;-71
2023/01/17 22:39:49;;;;;;;55.43;22.67;;;;;;;0.80;100.00;98455.18;4943506;57;1138640;-82
2023/01/17 22:44:55;;;;;;;70.80;29.07;;;;;;;0.72;100.00;98441.89;4990581;57;1138892;-78
2023/01/17 22:50:01;;;;;;;59.90;23.62;;;;;;;0.63;100.00;98420.78;5003984;57;1138900;-78
2023/01/17 22:55:07;;;;;;;79.30;30.00;;;;;;;0.65;100.00;98414.17;5004121;56;1139131;-72
2023/01/17 23:00:14;;;;;;;66.80;27.55;;;;;;;0.57;100.00;98404.80;5004122;56;1139034;-67
2023/01/17 23:05:21;;;;;;;67.70;25.03;;;;;;;0.48;100.00;98394.55;5023683;57;1138833;-74
2023/01/17 23:21:15;;;;;;;95.57;32.05;;;;;;;0.28;100.00;98419.83;4914261;58;1138795;-78
2023/01/17 23:26:21;;;;;;;188.30;56.57;;;;;;;0.21;100.00;98414.21;4929294;58;1138940;-72
2023/01/17 23:31:27;;;;;;;131.00;44.47;;;;;;;0.16;100.00;98402.45;4910371;58;1140945;-73
2023/01/17 23:36:34;;;;;;;111.57;39.53;;;;;;;0.14;100.00;98387.47;4927089;58;1141013;-79
2023/01/17 23:47:03;;;;;;;90.67;35.27;;;;;;;0.22;100.00;98379.95;4995806;57;1140819;-79
2023/01/17 23:52:09;;;;;;;86.70;28.60;;;;;;;0.12;100.00;98389.34;5004184;57;1139006;-69
2023/01/17 23:57:15;;;;;;;101.25;32.00;;;;;;;0.07;100.00;98386.21;5023308;57;1138919;-70
